createdAt,value
2018-07-10T00:02:05.150Z,4.33
2018-07-10T00:05:37.238Z,3.60
2018-07-10T00:08:11.839Z,4.00
2018-07-10T00:11:01.018Z,3.97
2018-07-10T00:13:29.105Z,4.20
2018-07-10T00:15:57.326Z,4.00
2018-07-10T00:18:25.603Z,4.33
2018-07-10T00:20:54.036Z,4.33
2018-07-10T00:23:22.713Z,4.20
2018-07-10T00:25:51.106Z,5.13
2018-07-10T00:28:19.236Z,4.37
2018-07-10T00:30:47.756Z,5.00
2018-07-10T00:33:15.762Z,5.30
2018-07-10T00:35:43.694Z,5.27
2018-07-10T00:38:17.334Z,6.07
2018-07-10T00:40:45.353Z,5.60
2018-07-10T00:43:13.524Z,4.87
2018-07-10T00:45:41.568Z,4.80
2018-07-10T00:48:09.872Z,4.87
2018-07-10T00:50:37.889Z,5.90
2018-07-10T00:53:05.900Z,4.67
2018-07-10T00:55:33.911Z,5.20
2018-07-10T00:58:01.884Z,5.63
2018-07-10T01:00:33.248Z,4.87
2018-07-10T01:03:01.704Z,4.70
2018-07-10T01:05:30.450Z,4.87
2018-07-10T01:07:59.098Z,4.97
2018-07-10T01:10:27.431Z,4.43
2018-07-10T01:12:55.654Z,5.57
2018-07-10T01:15:25.264Z,4.87
2018-07-10T01:17:53.841Z,4.07
2018-07-10T01:20:22.511Z,4.80
2018-07-10T01:22:52.655Z,4.40
2018-07-10T01:25:21.851Z,5.03
2018-07-10T01:27:49.987Z,5.10
2018-07-10T01:30:18.804Z,4.73
2018-07-10T01:32:46.816Z,4.90
2018-07-10T01:35:14.786Z,4.70
2018-07-10T01:37:42.744Z,4.60
2018-07-10T01:40:10.866Z,5.70
2018-07-10T01:42:38.952Z,4.43
2018-07-10T01:45:06.956Z,4.80
2018-07-10T01:47:35.009Z,5.40
2018-07-10T01:50:03.061Z,6.57
2018-07-10T01:52:31.340Z,5.03
2018-07-10T01:54:59.657Z,5.80
2018-07-10T01:57:28.267Z,5.23
2018-07-10T01:59:56.827Z,5.30
2018-07-10T02:02:25.420Z,6.40
2018-07-10T02:04:54.558Z,5.73
2018-07-10T02:07:24.313Z,5.17
2018-07-10T02:09:52.897Z,5.23
2018-07-10T02:12:21.335Z,5.47
2018-07-10T02:14:49.619Z,6.53
2018-07-10T02:17:17.893Z,5.10
2018-07-10T02:19:46.012Z,5.67
2018-07-10T02:22:14.239Z,5.70
2018-07-10T02:24:42.538Z,5.57
2018-07-10T02:27:10.741Z,5.93
2018-07-10T02:29:38.741Z,5.73
2018-07-10T02:32:06.741Z,5.40
2018-07-10T02:34:34.691Z,6.00
2018-07-10T02:37:02.864Z,5.10
2018-07-10T02:39:31.023Z,4.63
2018-07-10T02:41:59.152Z,5.20
2018-07-10T02:44:27.420Z,5.03
2018-07-10T02:46:56.310Z,5.00
2018-07-10T02:49:24.639Z,6.83
2018-07-10T02:52:00.904Z,7.10
2018-07-10T02:54:30.263Z,6.77
2018-07-10T02:56:58.532Z,6.17
2018-07-10T02:59:34.998Z,5.43
2018-07-10T03:02:03.676Z,5.77
2018-07-10T03:04:32.069Z,5.30
2018-07-10T03:07:00.158Z,6.70
2018-07-10T03:09:28.336Z,4.93
2018-07-10T03:11:57.352Z,4.77
2018-07-10T03:14:25.628Z,5.47
2018-07-10T03:16:54.472Z,4.47
2018-07-10T03:19:23.285Z,5.37
2018-07-10T03:21:51.674Z,4.90
2018-07-10T03:24:20.221Z,5.40
2018-07-10T03:26:48.289Z,4.07
2018-07-10T03:29:16.322Z,4.37
2018-07-10T03:31:44.553Z,4.23
2018-07-10T03:34:12.553Z,5.63
2018-07-10T03:36:41.204Z,4.37
2018-07-10T03:39:09.223Z,4.70
2018-07-10T03:41:37.216Z,6.07
2018-07-10T03:44:05.254Z,5.17
2018-07-10T03:46:33.303Z,5.37
2018-07-10T03:49:01.336Z,5.17
2018-07-10T03:51:29.649Z,4.50
2018-07-10T03:53:58.043Z,5.13
2018-07-10T03:56:26.486Z,4.90
2018-07-10T03:58:56.091Z,4.40
2018-07-10T04:01:25.555Z,5.40
2018-07-10T04:03:54.342Z,8.90
2018-07-10T04:06:23.925Z,5.40
2018-07-10T04:08:52.893Z,5.23
2018-07-10T04:11:21.412Z,5.30
2018-07-10T04:13:49.452Z,4.90
2018-07-10T04:16:17.462Z,5.53
2018-07-10T04:18:45.474Z,5.87
2018-07-10T04:21:18.415Z,8.60
2018-07-10T04:23:50.245Z,5.43
2018-07-10T04:26:21.076Z,5.27
2018-07-10T04:28:53.426Z,5.70
2018-07-10T04:31:26.642Z,4.83
2018-07-10T04:33:54.951Z,4.77
2018-07-10T04:36:23.388Z,5.10
2018-07-10T04:38:56.118Z,5.00
2018-07-10T04:41:26.774Z,5.53
2018-07-10T04:43:57.075Z,4.80
2018-07-10T04:46:27.719Z,4.87
2018-07-10T04:49:00.179Z,5.10
2018-07-10T04:51:35.185Z,4.80
2018-07-10T04:54:19.808Z,4.33
2018-07-10T04:56:48.736Z,5.30
2018-07-10T04:59:16.701Z,4.10
2018-07-10T05:01:44.733Z,9.70
2018-07-10T05:04:13.032Z,7.90
2018-07-10T05:06:40.989Z,5.20
2018-07-10T05:09:09.016Z,6.93
2018-07-10T05:11:39.019Z,5.60
2018-07-10T05:14:06.995Z,5.00
2018-07-10T05:16:34.981Z,5.40
2018-07-10T05:19:03.129Z,4.47
2018-07-10T05:21:31.163Z,4.40
2018-07-10T05:23:59.228Z,4.50
2018-07-10T05:26:28.457Z,4.80
2018-07-10T05:28:56.790Z,4.97
2018-07-10T05:31:25.226Z,4.80
2018-07-10T05:33:53.584Z,4.47
2018-07-10T05:36:24.238Z,5.23
2018-07-10T05:39:09.740Z,5.17
2018-07-10T05:41:38.577Z,5.27
2018-07-10T05:44:06.604Z,4.67
2018-07-10T05:46:34.553Z,4.60
2018-07-10T05:49:03.438Z,4.60
2018-07-10T05:51:34.101Z,4.57
2018-07-10T05:54:03.539Z,5.20
2018-07-10T05:56:31.573Z,4.90
2018-07-10T05:59:00.898Z,6.27
2018-07-10T06:01:29.070Z,5.17
2018-07-10T06:03:57.360Z,5.83
2018-07-10T06:06:26.506Z,4.73
2018-07-10T06:08:54.861Z,5.10
2018-07-10T06:11:23.323Z,3.73
2018-07-10T06:13:52.360Z,5.00
2018-07-10T06:16:21.309Z,4.20
2018-07-10T06:18:52.218Z,4.43
2018-07-10T06:21:21.289Z,4.63
2018-07-10T06:23:49.313Z,5.07
2018-07-10T06:26:17.398Z,6.03
2018-07-10T06:28:52.378Z,5.07
2018-07-10T06:31:22.019Z,5.30
2018-07-10T06:33:57.113Z,4.50
2018-07-10T06:36:28.842Z,4.90
2018-07-10T06:39:04.316Z,4.00
2018-07-10T06:41:32.333Z,4.43
2018-07-10T06:44:01.332Z,5.20
2018-07-10T06:46:30.983Z,4.40
2018-07-10T06:49:06.352Z,3.80
2018-07-10T06:51:35.290Z,4.77
2018-07-10T06:54:03.517Z,4.87
2018-07-10T06:56:31.489Z,4.50
2018-07-10T06:58:59.504Z,4.53
2018-07-10T07:01:27.677Z,4.83
2018-07-10T07:03:57.152Z,5.27
2018-07-10T07:06:25.405Z,4.60
2018-07-10T07:08:54.160Z,4.20
2018-07-10T07:11:22.507Z,4.60
2018-07-10T07:13:52.430Z,4.10
2018-07-10T07:16:20.502Z,5.03
2018-07-10T07:18:48.496Z,3.97
2018-07-10T07:21:16.488Z,4.37
2018-07-10T07:23:44.617Z,5.10
2018-07-10T07:26:12.786Z,3.87
2018-07-10T07:28:40.841Z,4.17
2018-07-10T07:31:09.366Z,3.50
2018-07-10T07:33:37.401Z,4.30
2018-07-10T07:36:05.389Z,4.30
2018-07-10T07:38:33.360Z,3.80
2018-07-10T07:41:01.356Z,4.80
2018-07-10T07:43:29.416Z,4.07
2018-07-10T07:45:57.623Z,3.53
2018-07-10T07:48:25.750Z,3.70
2018-07-10T07:50:54.255Z,4.00
2018-07-10T07:53:22.549Z,3.83
2018-07-10T07:55:51.394Z,4.43
2018-07-10T07:58:19.358Z,4.13
2018-07-10T08:00:47.276Z,5.60
2018-07-10T08:03:15.312Z,3.47
2018-07-10T08:05:43.347Z,5.20
2018-07-10T08:08:11.461Z,4.30
2018-07-10T08:10:39.460Z,4.07
2018-07-10T08:13:07.447Z,3.73
2018-07-10T08:15:35.381Z,4.00
2018-07-10T08:18:03.364Z,4.03
2018-07-10T08:20:31.366Z,4.27
2018-07-10T08:22:59.368Z,3.70
2018-07-10T08:25:27.540Z,4.40
2018-07-10T08:27:55.632Z,4.70
2018-07-10T08:30:24.054Z,4.83
2018-07-10T08:32:52.356Z,4.37
2018-07-10T08:35:21.521Z,5.73
2018-07-10T08:37:49.812Z,5.20
2018-07-10T08:40:17.860Z,4.23
2018-07-10T08:42:52.736Z,4.53
2018-07-10T08:45:21.082Z,4.20
2018-07-10T08:47:49.065Z,4.53
2018-07-10T08:50:17.592Z,6.20
2018-07-10T08:52:45.956Z,4.77
2018-07-10T08:55:13.994Z,5.20
2018-07-10T08:57:42.435Z,4.23
2018-07-10T09:00:10.844Z,4.20
2018-07-10T09:02:38.840Z,4.13
2018-07-10T09:05:07.479Z,3.17
2018-07-10T09:07:35.443Z,4.00
2018-07-10T09:10:03.425Z,3.60
2018-07-10T09:12:31.414Z,4.50
2018-07-10T09:14:59.664Z,3.87
2018-07-10T09:17:28.373Z,3.90
2018-07-10T09:19:58.248Z,3.77
2018-07-10T09:22:26.376Z,3.27
2018-07-10T09:24:56.013Z,3.40
2018-07-10T09:27:24.516Z,4.03
2018-07-10T09:29:52.802Z,3.90
2018-07-10T09:32:27.165Z,3.80
2018-07-10T09:34:57.015Z,3.20
2018-07-10T09:37:30.699Z,3.90
2018-07-10T09:40:04.071Z,3.20
2018-07-10T09:42:33.509Z,3.30
2018-07-10T09:45:02.580Z,4.47
2018-07-10T09:47:30.788Z,3.73
2018-07-10T09:49:59.172Z,3.97
2018-07-10T09:52:27.415Z,4.50
2018-07-10T09:54:55.707Z,3.70
2018-07-10T09:57:23.927Z,4.07
2018-07-10T09:59:52.162Z,3.33
2018-07-10T10:02:25.501Z,3.40
2018-07-10T10:04:53.814Z,3.50
2018-07-10T10:07:22.075Z,4.00
2018-07-10T10:09:50.148Z,3.60
2018-07-10T10:12:18.149Z,3.10
2018-07-10T10:14:46.140Z,3.40
2018-07-10T10:17:14.935Z,3.23
2018-07-10T10:19:43.181Z,3.87
2018-07-10T10:22:11.626Z,3.37
2018-07-10T10:24:39.636Z,3.30
2018-07-10T10:27:07.623Z,3.43
2018-07-10T10:29:35.601Z,3.80
2018-07-10T10:32:03.901Z,4.27
2018-07-10T10:34:31.974Z,3.50
2018-07-10T10:36:59.930Z,3.17
2018-07-10T10:39:28.066Z,3.57
2018-07-10T10:41:56.347Z,3.30
2018-07-10T10:44:25.550Z,3.00
2018-07-10T10:46:53.911Z,2.60
2018-07-10T10:49:22.949Z,4.20
2018-07-10T10:51:51.297Z,3.20
2018-07-10T10:54:19.729Z,3.37
2018-07-10T10:56:47.690Z,3.43
2018-07-10T10:59:15.885Z,2.93
2018-07-10T11:01:44.029Z,3.37
2018-07-10T11:04:12.750Z,7.73
2018-07-10T11:06:40.741Z,2.70
2018-07-10T11:09:08.738Z,3.43
2018-07-10T11:11:36.711Z,3.70
2018-07-10T11:14:05.022Z,2.87
2018-07-10T11:16:33.300Z,3.90
2018-07-10T11:19:03.621Z,2.90
2018-07-10T11:21:44.044Z,3.00
2018-07-10T11:24:15.428Z,3.17
2018-07-10T11:26:44.765Z,3.70
2018-07-10T11:29:13.566Z,3.70
2018-07-10T11:31:41.536Z,3.40
2018-07-10T11:34:09.596Z,3.33
2018-07-10T11:36:37.598Z,3.00
2018-07-10T11:39:09.150Z,3.20
2018-07-10T11:41:39.727Z,3.40
2018-07-10T11:44:08.707Z,3.27
2018-07-10T11:46:37.161Z,3.67
2018-07-10T11:49:05.225Z,4.63
2018-07-10T11:51:33.305Z,5.27
2018-07-10T11:54:01.546Z,4.50
2018-07-10T11:56:29.809Z,3.40
2018-07-10T11:58:58.080Z,3.70
2018-07-10T12:01:26.895Z,8.17
2018-07-10T12:04:01.759Z,3.50
2018-07-10T12:06:29.915Z,2.97
2018-07-10T12:08:59.503Z,3.40
2018-07-10T12:11:28.716Z,6.37
2018-07-10T12:13:56.994Z,8.33
2018-07-10T12:16:25.197Z,3.57
2018-07-10T12:18:53.894Z,3.77
2018-07-10T12:21:22.622Z,3.40
2018-07-10T12:23:50.896Z,3.13
2018-07-10T12:26:19.201Z,2.80
2018-07-10T12:28:47.235Z,2.70
2018-07-10T12:31:15.398Z,2.97
2018-07-10T12:33:43.450Z,3.67
2018-07-10T12:36:11.413Z,3.27
2018-07-10T12:38:39.442Z,8.77
2018-07-10T12:41:07.465Z,2.60
2018-07-10T12:43:35.825Z,2.43
2018-07-10T12:46:03.826Z,2.83
2018-07-10T12:48:31.801Z,2.47
2018-07-10T12:50:59.857Z,2.73
2018-07-10T12:53:28.107Z,3.23
2018-07-10T12:55:57.249Z,3.10
2018-07-10T12:58:26.145Z,2.60
2018-07-10T13:00:54.784Z,2.77
2018-07-10T13:03:23.489Z,3.20
2018-07-10T13:05:53.058Z,2.80
2018-07-10T13:08:22.441Z,3.00
2018-07-10T13:10:51.539Z,2.57
2018-07-10T13:13:21.720Z,2.90
2018-07-10T13:15:49.718Z,2.90
2018-07-10T13:18:20.761Z,3.40
2018-07-10T13:20:48.860Z,3.10
2018-07-10T13:23:16.858Z,2.90
2018-07-10T13:25:44.892Z,3.43
2018-07-10T13:28:13.049Z,3.10
2018-07-10T13:30:41.098Z,3.27
2018-07-10T13:33:09.891Z,2.57
2018-07-10T13:35:37.921Z,2.97
2018-07-10T13:38:06.093Z,3.70
2018-07-10T13:40:34.804Z,2.97
2018-07-10T13:43:02.727Z,3.07
2018-07-10T13:45:31.494Z,3.77
2018-07-10T13:47:59.541Z,2.97
2018-07-10T13:50:29.198Z,2.63
2018-07-10T13:52:58.125Z,2.80
2018-07-10T13:55:26.562Z,4.20
2018-07-10T13:58:12.404Z,2.63
2018-07-10T14:00:42.858Z,2.50
2018-07-10T14:03:11.036Z,3.40
2018-07-10T14:05:39.340Z,2.73
2018-07-10T14:08:07.992Z,3.27
2018-07-10T14:10:36.111Z,3.43
2018-07-10T14:13:04.992Z,2.50
2018-07-10T14:15:33.019Z,3.77
2018-07-10T14:18:02.485Z,4.50
2018-07-10T14:20:37.533Z,2.90
2018-07-10T14:23:05.651Z,4.03
2018-07-10T14:25:33.641Z,3.13
2018-07-10T14:28:01.913Z,4.20
2018-07-10T14:30:30.125Z,3.30
2018-07-10T14:32:58.377Z,3.80
2018-07-10T14:35:27.077Z,3.40
2018-07-10T14:37:55.846Z,3.07
2018-07-10T14:40:24.368Z,3.50
2018-07-10T14:42:52.856Z,4.30
2018-07-10T14:45:21.292Z,5.57
2018-07-10T14:47:49.363Z,6.87
2018-07-10T14:50:18.767Z,7.07
2018-07-10T14:52:46.747Z,8.13
2018-07-10T14:55:14.884Z,11.30
2018-07-10T14:57:43.470Z,16.23
2018-07-10T15:00:12.680Z,16.73
2018-07-10T15:02:40.753Z,17.67
2018-07-10T15:05:09.522Z,16.77
2018-07-10T15:07:37.620Z,15.67
2018-07-10T15:10:05.677Z,16.47
2018-07-10T15:12:33.633Z,15.87
2018-07-10T15:15:01.800Z,15.73
2018-07-10T15:17:35.101Z,13.60
2018-07-10T15:20:05.237Z,13.80
2018-07-10T15:22:33.992Z,12.43
2018-07-10T15:25:01.958Z,13.47
2018-07-10T15:27:30.092Z,14.10
2018-07-10T15:29:58.732Z,14.50
2018-07-10T15:32:27.175Z,15.93
2018-07-10T15:34:55.616Z,14.07
2018-07-10T15:37:24.247Z,14.10
2018-07-10T15:39:53.683Z,14.57
2018-07-10T15:42:22.185Z,13.07
2018-07-10T15:44:50.335Z,14.00
2018-07-10T15:47:22.615Z,14.07
2018-07-10T15:49:50.785Z,14.70
2018-07-10T15:52:18.788Z,13.63
2018-07-10T15:54:47.281Z,12.80
2018-07-10T15:57:15.360Z,12.23
2018-07-10T15:59:45.112Z,11.30
2018-07-10T16:02:13.361Z,10.53
2018-07-10T16:04:41.573Z,9.63
2018-07-10T16:07:10.256Z,10.23
2018-07-10T16:09:38.292Z,9.43
2018-07-10T16:12:06.526Z,10.07
2018-07-10T16:14:42.713Z,10.37
2018-07-10T16:17:15.557Z,10.47
2018-07-10T16:19:43.613Z,11.50
2018-07-10T16:22:20.764Z,11.30
2018-07-10T16:24:50.749Z,11.33
2018-07-10T16:27:24.442Z,13.60
2018-07-10T16:29:52.652Z,12.47
2018-07-10T16:32:20.871Z,13.03
2018-07-10T16:34:49.189Z,12.97
2018-07-10T16:37:17.852Z,12.77
2018-07-10T16:39:45.996Z,14.23
2018-07-10T16:42:19.464Z,13.83
2018-07-10T16:44:48.578Z,13.27
2018-07-10T16:47:19.984Z,13.87
2018-07-10T16:49:48.003Z,14.13
2018-07-10T16:52:20.721Z,14.40
2018-07-10T16:54:48.913Z,14.23
2018-07-10T16:57:16.973Z,13.90
2018-07-10T16:59:44.975Z,15.87
2018-07-10T17:02:13.030Z,15.77
2018-07-10T17:04:42.487Z,17.10
2018-07-10T17:07:12.284Z,16.80
2018-07-10T17:09:40.374Z,20.07
2018-07-10T17:12:08.669Z,17.80
2018-07-10T17:14:36.605Z,17.60
2018-07-10T17:17:09.097Z,17.27
2018-07-10T17:19:37.057Z,17.80
2018-07-10T17:22:05.327Z,18.47
2018-07-10T17:24:33.319Z,17.83
2018-07-10T17:27:01.764Z,16.37
2018-07-10T17:29:30.609Z,16.60
2018-07-10T17:31:58.877Z,16.77
2018-07-10T17:34:27.967Z,15.87
2018-07-10T17:36:56.057Z,16.60
2018-07-10T17:39:24.430Z,17.50
2018-07-10T17:41:52.903Z,18.03
2018-07-10T17:44:22.042Z,16.57
2018-07-10T17:46:50.904Z,18.70
2018-07-10T17:49:19.000Z,18.40
2018-07-10T17:51:47.098Z,18.40
2018-07-10T17:54:15.394Z,15.73
2018-07-10T17:56:43.744Z,17.80
2018-07-10T17:59:11.757Z,18.50
2018-07-10T18:01:40.807Z,17.40
2018-07-10T18:04:09.147Z,21.03
2018-07-10T18:06:37.540Z,20.13
2018-07-10T18:09:06.337Z,16.70
2018-07-10T18:11:34.416Z,16.73
2018-07-10T18:14:02.428Z,17.30
2018-07-10T18:16:35.489Z,17.07
2018-07-10T18:19:03.777Z,18.20
2018-07-10T18:21:32.726Z,15.00
2018-07-10T18:24:00.816Z,18.00
2018-07-10T18:26:29.394Z,18.80
2018-07-10T18:28:57.449Z,18.87
2018-07-10T18:31:25.577Z,18.43
2018-07-10T18:33:55.168Z,19.77
2018-07-10T18:36:23.779Z,20.50
2018-07-10T18:44:22.560Z,22.23
2018-07-10T18:52:28.447Z,19.77
2018-07-10T18:54:59.538Z,23.90
2018-07-10T19:00:23.922Z,18.20
2018-07-10T19:08:17.017Z,16.07
2018-07-10T19:10:48.567Z,16.67
2018-07-10T19:13:23.339Z,18.07
2018-07-10T19:15:52.388Z,18.43
2018-07-10T19:24:19.874Z,17.40
2018-07-10T19:26:47.963Z,19.40
2018-07-10T19:29:23.965Z,19.77
2018-07-10T19:34:36.038Z,19.87
2018-07-10T19:39:45.302Z,18.90
2018-07-10T19:42:22.644Z,20.00
2018-07-10T19:47:40.373Z,23.20
2018-07-10T19:50:12.888Z,22.90
2018-07-10T19:52:42.794Z,21.07
2018-07-10T19:55:13.721Z,20.53
2018-07-10T19:57:43.897Z,21.87
2018-07-10T20:02:53.833Z,22.13
2018-07-10T20:05:26.552Z,21.87
2018-07-10T20:08:06.699Z,20.63
2018-07-10T20:10:38.047Z,22.80
2018-07-10T20:18:46.020Z,19.43
2018-07-10T20:21:21.343Z,20.33
2018-07-10T20:31:28.499Z,21.40
2018-07-10T20:39:23.793Z,21.00
2018-07-10T20:41:52.796Z,21.90
2018-07-10T20:44:30.355Z,18.87
2018-07-10T20:49:47.706Z,21.47
2018-07-10T20:52:23.728Z,21.57
2018-07-10T20:57:44.316Z,21.23
2018-07-10T21:00:13.880Z,19.20
2018-07-10T21:03:04.326Z,20.27
2018-07-10T21:05:39.322Z,19.70
2018-07-10T21:08:10.747Z,20.70
2018-07-10T21:10:41.451Z,20.77
2018-07-10T21:13:11.763Z,19.80
2018-07-10T21:16:17.877Z,20.83
2018-07-10T21:18:54.474Z,20.80
2018-07-10T21:21:36.146Z,19.60
2018-07-10T21:24:08.866Z,19.70
2018-07-10T21:26:38.932Z,19.03
2018-07-10T21:29:10.092Z,17.17
2018-07-10T21:31:40.929Z,18.57
2018-07-10T21:34:11.427Z,18.03
2018-07-10T21:36:52.454Z,17.10
2018-07-10T21:39:22.377Z,18.73
2018-07-10T21:41:58.032Z,20.80
2018-07-10T21:45:34.946Z,20.80
2018-07-10T21:48:09.685Z,21.67
2018-07-10T21:50:45.470Z,20.70
2018-07-10T21:53:13.745Z,19.40
2018-07-10T21:55:41.865Z,19.50
2018-07-10T21:58:09.915Z,22.47
2018-07-10T22:00:52.892Z,22.30
2018-07-10T22:03:21.131Z,19.87
2018-07-10T22:05:49.347Z,21.20
2018-07-10T22:08:22.177Z,19.80
2018-07-10T22:10:50.589Z,21.07
2018-07-10T22:13:18.711Z,21.13
2018-07-10T22:15:46.887Z,24.27
2018-07-10T22:18:14.962Z,21.83
2018-07-10T22:20:43.101Z,19.73
2018-07-10T22:23:11.333Z,20.57
2018-07-10T22:25:39.415Z,20.90
2018-07-10T22:28:07.438Z,19.37
2018-07-10T22:30:41.766Z,21.10
2018-07-10T22:33:09.856Z,21.93
2018-07-10T22:35:37.877Z,18.20
2018-07-10T22:38:05.920Z,20.00
2018-07-10T22:40:34.041Z,20.67
2018-07-10T22:43:02.033Z,20.00
2018-07-10T22:45:30.135Z,18.30
2018-07-10T22:47:59.300Z,19.60
2018-07-10T22:50:28.225Z,21.37
2018-07-10T22:52:59.322Z,19.93
2018-07-10T22:55:28.212Z,21.17
2018-07-10T22:57:58.511Z,18.70
2018-07-10T23:00:31.237Z,19.37
2018-07-10T23:03:00.278Z,19.73
2018-07-10T23:05:28.676Z,16.77
2018-07-10T23:07:56.975Z,16.50
2018-07-10T23:10:26.210Z,17.77
2018-07-10T23:12:55.106Z,19.90
2018-07-10T23:15:23.742Z,19.47
2018-07-10T23:17:52.896Z,17.93
2018-07-10T23:20:21.525Z,17.97
2018-07-10T23:22:54.029Z,18.87
2018-07-10T23:25:25.052Z,17.33
2018-07-10T23:27:55.851Z,18.20
2018-07-10T23:30:24.315Z,16.63
2018-07-10T23:32:53.078Z,18.10
2018-07-10T23:35:21.575Z,17.40
2018-07-10T23:37:52.901Z,18.63
2018-07-10T23:40:23.144Z,18.93
2018-07-10T23:42:54.234Z,17.87
2018-07-10T23:45:24.555Z,17.90
2018-07-10T23:47:54.899Z,18.83
2018-07-10T23:50:27.226Z,17.93
2018-07-10T23:52:59.271Z,18.30
2018-07-10T23:55:27.753Z,17.43
2018-07-10T23:57:56.719Z,15.73
